sensor_id;sensor_type;location;lat;lon;timestamp;temperature;humidity
19734;DHT22;10018;51.230;7.860;2024-01-30T00:01:55;3.60;99.90
19734;DHT22;10018;51.230;7.860;2024-01-30T00:04:20;3.60;99.90
19734;DHT22;10018;51.230;7.860;2024-01-30T00:06:46;3.60;99.90
19734;DHT22;10018;51.230;7.860;2024-01-30T00:09:11;3.50;99.90
19734;DHT22;10018;51.230;7.860;2024-01-30T00:11:37;3.50;99.90
19734;DHT22;10018;51.230;7.860;2024-01-30T00:14:06;3.50;99.90
19734;DHT22;10018;51.230;7.860;2024-01-30T00:16:32;3.40;99.90
19734;DHT22;10018;51.230;7.860;2024-01-30T00:18:57;3.50;99.90
19734;DHT22;10018;51.230;7.860;2024-01-30T00:21:23;3.50;99.90
19734;DHT22;10018;51.230;7.860;2024-01-30T00:23:49;3.40;99.90
19734;DHT22;10018;51.230;7.860;2024-01-30T00:26:15;3.40;99.90
19734;DHT22;10018;51.230;7.860;2024-01-30T00:28:41;3.40;99.90
19734;DHT22;10018;51.230;7.860;2024-01-30T00:31:07;3.40;99.90
19734;DHT22;10018;51.230;7.860;2024-01-30T00:33:33;3.50;99.90
19734;DHT22;10018;51.230;7.860;2024-01-30T00:35:58;3.50;99.90
19734;DHT22;10018;51.230;7.860;2024-01-30T00:38:24;3.50;99.90
19734;DHT22;10018;51.230;7.860;2024-01-30T00:40:50;3.50;99.90
19734;DHT22;10018;51.230;7.860;2024-01-30T00:43:15;3.50;99.90
19734;DHT22;10018;51.230;7.860;2024-01-30T00:45:41;3.50;99.90
19734;DHT22;10018;51.230;7.860;2024-01-30T00:48:07;3.50;99.90
19734;DHT22;10018;51.230;7.860;2024-01-30T00:50:32;3.40;99.90
19734;DHT22;10018;51.230;7.860;2024-01-30T00:53:00;3.40;99.90
19734;DHT22;10018;51.230;7.860;2024-01-30T00:55:26;3.40;99.90
19734;DHT22;10018;51.230;7.860;2024-01-30T00:57:51;3.40;99.90
19734;DHT22;10018;51.230;7.860;2024-01-30T01:00:17;3.40;99.90
19734;DHT22;10018;51.230;7.860;2024-01-30T01:02:43;3.40;99.90
19734;DHT22;10018;51.230;7.860;2024-01-30T01:05:09;3.40;99.90
19734;DHT22;10018;51.230;7.860;2024-01-30T01:07:35;3.40;99.90
19734;DHT22;10018;51.230;7.860;2024-01-30T01:10:00;3.40;99.90
19734;DHT22;10018;51.230;7.860;2024-01-30T01:12:29;3.30;99.90
19734;DHT22;10018;51.230;7.860;2024-01-30T01:14:54;3.30;99.90
19734;DHT22;10018;51.230;7.860;2024-01-30T01:17:20;3.20;99.90
19734;DHT22;10018;51.230;7.860;2024-01-30T01:19:45;3.20;99.90
19734;DHT22;10018;51.230;7.860;2024-01-30T01:22:13;3.20;99.90
19734;DHT22;10018;51.230;7.860;2024-01-30T01:24:39;3.20;99.90
19734;DHT22;10018;51.230;7.860;2024-01-30T01:27:05;3.20;99.90
19734;DHT22;10018;51.230;7.860;2024-01-30T01:29:31;3.30;99.90
19734;DHT22;10018;51.230;7.860;2024-01-30T01:31:57;3.20;99.90
19734;DHT22;10018;51.230;7.860;2024-01-30T01:34:23;3.20;99.90
19734;DHT22;10018;51.230;7.860;2024-01-30T01:36:49;3.20;99.90
19734;DHT22;10018;51.230;7.860;2024-01-30T01:39:15;3.20;99.90
19734;DHT22;10018;51.230;7.860;2024-01-30T01:41:41;3.10;99.90
19734;DHT22;10018;51.230;7.860;2024-01-30T01:44:07;3.10;99.90
19734;DHT22;10018;51.230;7.860;2024-01-30T01:46:33;3.10;99.90
19734;DHT22;10018;51.230;7.860;2024-01-30T01:49:02;3.10;99.90
19734;DHT22;10018;51.230;7.860;2024-01-30T01:51:28;3.10;99.90
19734;DHT22;10018;51.230;7.860;2024-01-30T01:53:55;3.00;99.90
19734;DHT22;10018;51.230;7.860;2024-01-30T01:56:25;3.10;99.90
19734;DHT22;10018;51.230;7.860;2024-01-30T01:58:54;3.00;99.90
19734;DHT22;10018;51.230;7.860;2024-01-30T02:01:21;3.00;99.90
19734;DHT22;10018;51.230;7.860;2024-01-30T02:03:46;2.90;99.90
19734;DHT22;10018;51.230;7.860;2024-01-30T02:06:13;3.00;99.90
19734;DHT22;10018;51.230;7.860;2024-01-30T02:08:40;3.00;99.90
19734;DHT22;10018;51.230;7.860;2024-01-30T02:11:06;2.90;99.90
19734;DHT22;10018;51.230;7.860;2024-01-30T02:13:31;2.90;99.90
19734;DHT22;10018;51.230;7.860;2024-01-30T02:15:57;2.90;99.90
19734;DHT22;10018;51.230;7.860;2024-01-30T02:18:23;2.90;99.90
19734;DHT22;10018;51.230;7.860;2024-01-30T02:20:48;2.90;99.90
19734;DHT22;10018;51.230;7.860;2024-01-30T02:23:19;2.90;99.90
19734;DHT22;10018;51.230;7.860;2024-01-30T02:25:45;3.00;99.90
19734;DHT22;10018;51.230;7.860;2024-01-30T02:28:14;3.00;99.90
19734;DHT22;10018;51.230;7.860;2024-01-30T02:30:40;3.00;99.90
19734;DHT22;10018;51.230;7.860;2024-01-30T02:33:06;3.00;99.90
19734;DHT22;10018;51.230;7.860;2024-01-30T02:35:34;3.00;99.90
19734;DHT22;10018;51.230;7.860;2024-01-30T02:37:59;3.00;99.90
19734;DHT22;10018;51.230;7.860;2024-01-30T02:40:25;3.00;99.90
19734;DHT22;10018;51.230;7.860;2024-01-30T02:42:51;3.00;99.90
19734;DHT22;10018;51.230;7.860;2024-01-30T02:45:17;3.00;99.90
19734;DHT22;10018;51.230;7.860;2024-01-30T02:47:42;3.00;99.90
19734;DHT22;10018;51.230;7.860;2024-01-30T02:50:08;3.00;99.90
19734;DHT22;10018;51.230;7.860;2024-01-30T02:52:34;2.90;99.90
19734;DHT22;10018;51.230;7.860;2024-01-30T02:55:00;2.90;99.90
19734;DHT22;10018;51.230;7.860;2024-01-30T02:57:25;2.90;99.90
19734;DHT22;10018;51.230;7.860;2024-01-30T02:59:51;2.90;99.90
19734;DHT22;10018;51.230;7.860;2024-01-30T03:02:16;2.80;99.90
19734;DHT22;10018;51.230;7.860;2024-01-30T03:04:42;2.80;99.90
19734;DHT22;10018;51.230;7.860;2024-01-30T03:07:08;2.80;99.90
19734;DHT22;10018;51.230;7.860;2024-01-30T03:09:34;2.80;99.90
19734;DHT22;10018;51.230;7.860;2024-01-30T03:12:00;2.90;99.90
19734;DHT22;10018;51.230;7.860;2024-01-30T03:14:30;2.80;99.90
19734;DHT22;10018;51.230;7.860;2024-01-30T03:16:56;2.80;99.90
19734;DHT22;10018;51.230;7.860;2024-01-30T03:19:21;2.80;99.90
19734;DHT22;10018;51.230;7.860;2024-01-30T03:21:47;2.80;99.90
19734;DHT22;10018;51.230;7.860;2024-01-30T03:24:12;2.80;99.90
19734;DHT22;10018;51.230;7.860;2024-01-30T03:26:38;2.80;99.90
19734;DHT22;10018;51.230;7.860;2024-01-30T03:29:03;2.80;99.90
19734;DHT22;10018;51.230;7.860;2024-01-30T03:31:29;2.80;99.90
19734;DHT22;10018;51.230;7.860;2024-01-30T03:33:57;2.80;99.90
19734;DHT22;10018;51.230;7.860;2024-01-30T03:36:22;2.90;99.90
19734;DHT22;10018;51.230;7.860;2024-01-30T03:38:48;2.90;99.90
19734;DHT22;10018;51.230;7.860;2024-01-30T03:41:13;3.00;99.90
19734;DHT22;10018;51.230;7.860;2024-01-30T03:43:39;3.00;99.90
19734;DHT22;10018;51.230;7.860;2024-01-30T03:46:05;3.00;99.90
19734;DHT22;10018;51.230;7.860;2024-01-30T03:48:31;3.00;99.90
19734;DHT22;10018;51.230;7.860;2024-01-30T03:50:56;3.00;99.90
19734;DHT22;10018;51.230;7.860;2024-01-30T03:53:26;3.00;99.90
19734;DHT22;10018;51.230;7.860;2024-01-30T03:55:52;2.90;99.90
19734;DHT22;10018;51.230;7.860;2024-01-30T03:58:17;2.90;99.90
19734;DHT22;10018;51.230;7.860;2024-01-30T04:00:43;2.90;99.90
19734;DHT22;10018;51.230;7.860;2024-01-30T04:03:08;2.90;99.90
19734;DHT22;10018;51.230;7.860;2024-01-30T04:05:36;2.90;99.90
19734;DHT22;10018;51.230;7.860;2024-01-30T04:08:02;2.90;99.90
19734;DHT22;10018;51.230;7.860;2024-01-30T04:10:29;2.90;99.90
19734;DHT22;10018;51.230;7.860;2024-01-30T04:12:55;2.90;99.90
19734;DHT22;10018;51.230;7.860;2024-01-30T04:15:21;2.90;99.90
19734;DHT22;10018;51.230;7.860;2024-01-30T04:17:46;2.90;99.90
19734;DHT22;10018;51.230;7.860;2024-01-30T04:20:15;2.90;99.90
19734;DHT22;10018;51.230;7.860;2024-01-30T04:22:43;2.90;99.90
19734;DHT22;10018;51.230;7.860;2024-01-30T04:25:12;2.90;99.90
19734;DHT22;10018;51.230;7.860;2024-01-30T04:27:40;2.90;99.90
19734;DHT22;10018;51.230;7.860;2024-01-30T04:30:06;2.90;99.90
19734;DHT22;10018;51.230;7.860;2024-01-30T04:32:32;2.90;99.90
19734;DHT22;10018;51.230;7.860;2024-01-30T04:34:58;2.90;99.90
19734;DHT22;10018;51.230;7.860;2024-01-30T04:37:24;2.80;99.90
19734;DHT22;10018;51.230;7.860;2024-01-30T04:39:50;2.80;99.90
19734;DHT22;10018;51.230;7.860;2024-01-30T04:42:16;2.80;99.90
19734;DHT22;10018;51.230;7.860;2024-01-30T04:44:42;2.80;99.90
19734;DHT22;10018;51.230;7.860;2024-01-30T04:47:10;2.80;99.90
19734;DHT22;10018;51.230;7.860;2024-01-30T04:49:38;2.80;99.90
19734;DHT22;10018;51.230;7.860;2024-01-30T04:52:08;2.80;99.90
19734;DHT22;10018;51.230;7.860;2024-01-30T04:54:34;2.80;99.90
19734;DHT22;10018;51.230;7.860;2024-01-30T04:57:01;2.80;99.90
19734;DHT22;10018;51.230;7.860;2024-01-30T04:59:26;2.80;99.90
19734;DHT22;10018;51.230;7.860;2024-01-30T05:01:52;2.80;99.90
19734;DHT22;10018;51.230;7.860;2024-01-30T05:04:18;2.70;99.90
19734;DHT22;10018;51.230;7.860;2024-01-30T05:06:43;2.70;99.90
19734;DHT22;10018;51.230;7.860;2024-01-30T05:09:11;2.70;99.90
19734;DHT22;10018;51.230;7.860;2024-01-30T05:11:39;2.70;99.90
19734;DHT22;10018;51.230;7.860;2024-01-30T05:14:05;2.70;99.90
19734;DHT22;10018;51.230;7.860;2024-01-30T05:16:31;2.60;99.90
19734;DHT22;10018;51.230;7.860;2024-01-30T05:18:59;2.70;99.90
19734;DHT22;10018;51.230;7.860;2024-01-30T05:21:24;2.70;99.90
19734;DHT22;10018;51.230;7.860;2024-01-30T05:23:50;2.70;99.90
19734;DHT22;10018;51.230;7.860;2024-01-30T05:26:18;2.70;99.90
19734;DHT22;10018;51.230;7.860;2024-01-30T05:28:44;2.70;99.90
19734;DHT22;10018;51.230;7.860;2024-01-30T05:31:12;2.70;99.90
19734;DHT22;10018;51.230;7.860;2024-01-30T05:33:38;2.70;99.90
19734;DHT22;10018;51.230;7.860;2024-01-30T05:36:03;2.70;99.90
19734;DHT22;10018;51.230;7.860;2024-01-30T05:38:29;2.70;99.90
19734;DHT22;10018;51.230;7.860;2024-01-30T05:40:55;2.70;99.90
19734;DHT22;10018;51.230;7.860;2024-01-30T05:43:23;2.70;99.90
19734;DHT22;10018;51.230;7.860;2024-01-30T05:45:49;2.70;99.90
19734;DHT22;10018;51.230;7.860;2024-01-30T05:48:14;2.70;99.90
19734;DHT22;10018;51.230;7.860;2024-01-30T05:50:40;2.70;99.90
19734;DHT22;10018;51.230;7.860;2024-01-30T05:53:05;2.60;99.90
19734;DHT22;10018;51.230;7.860;2024-01-30T05:55:31;2.60;99.90
19734;DHT22;10018;51.230;7.860;2024-01-30T05:57:56;2.60;99.90
19734;DHT22;10018;51.230;7.860;2024-01-30T06:00:22;2.60;99.90
19734;DHT22;10018;51.230;7.860;2024-01-30T06:02:47;2.60;99.90
19734;DHT22;10018;51.230;7.860;2024-01-30T06:05:13;2.60;99.90
19734;DHT22;10018;51.230;7.860;2024-01-30T06:07:38;2.60;99.90
19734;DHT22;10018;51.230;7.860;2024-01-30T06:10:05;2.50;99.90
19734;DHT22;10018;51.230;7.860;2024-01-30T06:12:30;2.50;99.90
19734;DHT22;10018;51.230;7.860;2024-01-30T06:14:56;2.50;99.90
19734;DHT22;10018;51.230;7.860;2024-01-30T06:17:22;2.50;99.90
19734;DHT22;10018;51.230;7.860;2024-01-30T06:19:48;2.50;99.90
19734;DHT22;10018;51.230;7.860;2024-01-30T06:22:14;2.50;99.90
19734;DHT22;10018;51.230;7.860;2024-01-30T06:24:39;2.50;99.90
19734;DHT22;10018;51.230;7.860;2024-01-30T06:27:05;2.50;99.90
19734;DHT22;10018;51.230;7.860;2024-01-30T06:29:30;2.40;99.90
19734;DHT22;10018;51.230;7.860;2024-01-30T06:31:56;2.40;99.90
19734;DHT22;10018;51.230;7.860;2024-01-30T06:34:22;2.40;99.90
19734;DHT22;10018;51.230;7.860;2024-01-30T06:36:48;2.30;99.90
19734;DHT22;10018;51.230;7.860;2024-01-30T06:39:13;2.30;99.90
19734;DHT22;10018;51.230;7.860;2024-01-30T06:41:39;2.40;99.90
19734;DHT22;10018;51.230;7.860;2024-01-30T06:44:05;2.40;99.90
19734;DHT22;10018;51.230;7.860;2024-01-30T06:46:32;2.40;99.90
19734;DHT22;10018;51.230;7.860;2024-01-30T06:48:58;2.40;99.90
19734;DHT22;10018;51.230;7.860;2024-01-30T06:51:23;2.40;99.90
19734;DHT22;10018;51.230;7.860;2024-01-30T06:53:49;2.40;99.90
19734;DHT22;10018;51.230;7.860;2024-01-30T06:56:14;2.30;99.90
19734;DHT22;10018;51.230;7.860;2024-01-30T06:58:40;2.30;99.90
19734;DHT22;10018;51.230;7.860;2024-01-30T07:01:06;2.40;99.90
19734;DHT22;10018;51.230;7.860;2024-01-30T07:03:32;2.40;99.90
19734;DHT22;10018;51.230;7.860;2024-01-30T07:05:58;2.40;99.90
19734;DHT22;10018;51.230;7.860;2024-01-30T07:08:26;2.40;99.90
19734;DHT22;10018;51.230;7.860;2024-01-30T07:10:52;2.40;99.90
19734;DHT22;10018;51.230;7.860;2024-01-30T07:13:20;2.40;99.90
19734;DHT22;10018;51.230;7.860;2024-01-30T07:15:46;2.40;99.90
19734;DHT22;10018;51.230;7.860;2024-01-30T07:18:11;2.40;99.90
19734;DHT22;10018;51.230;7.860;2024-01-30T07:20:39;2.40;99.90
19734;DHT22;10018;51.230;7.860;2024-01-30T07:23:14;2.40;99.90
19734;DHT22;10018;51.230;7.860;2024-01-30T07:25:42;2.40;99.90
19734;DHT22;10018;51.230;7.860;2024-01-30T07:28:08;2.50;99.90
19734;DHT22;10018;51.230;7.860;2024-01-30T07:30:42;2.60;99.90
19734;DHT22;10018;51.230;7.860;2024-01-30T07:33:08;2.60;99.90
19734;DHT22;10018;51.230;7.860;2024-01-30T07:35:34;2.60;99.90
19734;DHT22;10018;51.230;7.860;2024-01-30T07:37:59;2.70;99.90
19734;DHT22;10018;51.230;7.860;2024-01-30T07:40:25;2.70;99.90
19734;DHT22;10018;51.230;7.860;2024-01-30T07:42:52;2.70;99.90
19734;DHT22;10018;51.230;7.860;2024-01-30T07:45:18;2.80;99.90
19734;DHT22;10018;51.230;7.860;2024-01-30T07:47:48;2.80;99.90
19734;DHT22;10018;51.230;7.860;2024-01-30T07:50:14;2.80;99.90
19734;DHT22;10018;51.230;7.860;2024-01-30T07:52:39;2.90;99.90
19734;DHT22;10018;51.230;7.860;2024-01-30T07:55:05;2.90;99.90
19734;DHT22;10018;51.230;7.860;2024-01-30T07:57:33;3.00;99.90
19734;DHT22;10018;51.230;7.860;2024-01-30T08:00:01;3.00;99.90
19734;DHT22;10018;51.230;7.860;2024-01-30T08:02:28;3.10;99.90
19734;DHT22;10018;51.230;7.860;2024-01-30T08:04:54;3.10;99.90
19734;DHT22;10018;51.230;7.860;2024-01-30T08:07:19;3.10;99.90
19734;DHT22;10018;51.230;7.860;2024-01-30T08:09:47;3.10;99.90
19734;DHT22;10018;51.230;7.860;2024-01-30T08:12:13;3.10;99.90
19734;DHT22;10018;51.230;7.860;2024-01-30T08:14:39;3.10;99.90
19734;DHT22;10018;51.230;7.860;2024-01-30T08:17:05;3.20;99.90
19734;DHT22;10018;51.230;7.860;2024-01-30T08:19:33;3.30;99.90
19734;DHT22;10018;51.230;7.860;2024-01-30T08:21:58;3.40;99.90
19734;DHT22;10018;51.230;7.860;2024-01-30T08:24:24;3.50;99.90
19734;DHT22;10018;51.230;7.860;2024-01-30T08:26:49;3.50;99.90
19734;DHT22;10018;51.230;7.860;2024-01-30T08:29:15;3.50;99.90
19734;DHT22;10018;51.230;7.860;2024-01-30T08:31:40;3.50;99.90
19734;DHT22;10018;51.230;7.860;2024-01-30T08:34:06;3.60;99.90
19734;DHT22;10018;51.230;7.860;2024-01-30T08:36:34;3.60;99.90
19734;DHT22;10018;51.230;7.860;2024-01-30T08:38:59;3.70;99.90
19734;DHT22;10018;51.230;7.860;2024-01-30T08:41:25;3.70;99.90
19734;DHT22;10018;51.230;7.860;2024-01-30T08:43:52;3.80;99.90
19734;DHT22;10018;51.230;7.860;2024-01-30T08:46:20;3.90;99.90
19734;DHT22;10018;51.230;7.860;2024-01-30T08:48:46;3.90;99.90
19734;DHT22;10018;51.230;7.860;2024-01-30T08:51:13;3.90;99.90
19734;DHT22;10018;51.230;7.860;2024-01-30T08:53:39;3.90;99.90
19734;DHT22;10018;51.230;7.860;2024-01-30T08:56:06;4.00;99.90
19734;DHT22;10018;51.230;7.860;2024-01-30T08:58:31;4.00;99.90
19734;DHT22;10018;51.230;7.860;2024-01-30T09:00:58;4.00;99.90
19734;DHT22;10018;51.230;7.860;2024-01-30T09:03:23;4.10;99.90
19734;DHT22;10018;51.230;7.860;2024-01-30T09:05:52;4.20;99.90
19734;DHT22;10018;51.230;7.860;2024-01-30T09:08:20;4.30;99.90
19734;DHT22;10018;51.230;7.860;2024-01-30T09:10:46;4.30;99.90
19734;DHT22;10018;51.230;7.860;2024-01-30T09:13:12;4.40;99.90
19734;DHT22;10018;51.230;7.860;2024-01-30T09:15:38;4.40;99.90
19734;DHT22;10018;51.230;7.860;2024-01-30T09:18:03;4.40;99.90
19734;DHT22;10018;51.230;7.860;2024-01-30T09:20:29;4.40;99.90
19734;DHT22;10018;51.230;7.860;2024-01-30T09:22:57;4.50;99.90
19734;DHT22;10018;51.230;7.860;2024-01-30T09:25:25;4.70;99.90
19734;DHT22;10018;51.230;7.860;2024-01-30T09:27:50;4.80;99.90
19734;DHT22;10018;51.230;7.860;2024-01-30T09:30:16;5.00;99.90
19734;DHT22;10018;51.230;7.860;2024-01-30T09:32:43;5.10;99.90
19734;DHT22;10018;51.230;7.860;2024-01-30T09:35:09;5.10;99.90
19734;DHT22;10018;51.230;7.860;2024-01-30T09:37:34;5.20;99.90
19734;DHT22;10018;51.230;7.860;2024-01-30T09:40:00;5.20;99.90
19734;DHT22;10018;51.230;7.860;2024-01-30T09:42:33;5.30;99.90
19734;DHT22;10018;51.230;7.860;2024-01-30T09:44:59;5.40;99.90
19734;DHT22;10018;51.230;7.860;2024-01-30T09:47:26;5.50;99.90
19734;DHT22;10018;51.230;7.860;2024-01-30T09:49:51;5.60;99.90
19734;DHT22;10018;51.230;7.860;2024-01-30T09:52:17;5.60;99.90
19734;DHT22;10018;51.230;7.860;2024-01-30T09:54:45;5.70;99.90
19734;DHT22;10018;51.230;7.860;2024-01-30T09:57:11;5.90;99.90
19734;DHT22;10018;51.230;7.860;2024-01-30T09:59:42;6.00;99.90
19734;DHT22;10018;51.230;7.860;2024-01-30T10:02:08;6.10;99.90
19734;DHT22;10018;51.230;7.860;2024-01-30T10:04:34;6.20;99.90
19734;DHT22;10018;51.230;7.860;2024-01-30T10:07:02;6.10;99.90
19734;DHT22;10018;51.230;7.860;2024-01-30T10:09:28;6.20;99.90
19734;DHT22;10018;51.230;7.860;2024-01-30T10:11:56;6.30;99.90
19734;DHT22;10018;51.230;7.860;2024-01-30T10:14:24;6.40;99.90
19734;DHT22;10018;51.230;7.860;2024-01-30T10:16:50;6.50;99.90
19734;DHT22;10018;51.230;7.860;2024-01-30T10:19:16;6.60;99.90
19734;DHT22;10018;51.230;7.860;2024-01-30T10:21:42;6.70;99.90
19734;DHT22;10018;51.230;7.860;2024-01-30T10:24:10;6.80;99.90
19734;DHT22;10018;51.230;7.860;2024-01-30T10:26:38;6.80;99.90
19734;DHT22;10018;51.230;7.860;2024-01-30T10:29:03;6.90;99.90
19734;DHT22;10018;51.230;7.860;2024-01-30T10:31:32;7.00;99.90
19734;DHT22;10018;51.230;7.860;2024-01-30T10:33:57;7.10;99.90
19734;DHT22;10018;51.230;7.860;2024-01-30T10:36:28;7.10;99.90
19734;DHT22;10018;51.230;7.860;2024-01-30T10:38:55;7.10;99.90
19734;DHT22;10018;51.230;7.860;2024-01-30T10:41:26;7.20;99.90
19734;DHT22;10018;51.230;7.860;2024-01-30T10:44:12;7.20;99.90
19734;DHT22;10018;51.230;7.860;2024-01-30T10:46:42;7.30;99.90
19734;DHT22;10018;51.230;7.860;2024-01-30T10:49:14;7.40;99.90
19734;DHT22;10018;51.230;7.860;2024-01-30T10:51:41;7.40;99.90
19734;DHT22;10018;51.230;7.860;2024-01-30T10:54:09;7.40;99.90
19734;DHT22;10018;51.230;7.860;2024-01-30T10:56:35;7.50;99.90
19734;DHT22;10018;51.230;7.860;2024-01-30T10:59:02;7.50;99.90
19734;DHT22;10018;51.230;7.860;2024-01-30T11:01:31;7.60;99.90
19734;DHT22;10018;51.230;7.860;2024-01-30T11:03:57;7.60;99.90
19734;DHT22;10018;51.230;7.860;2024-01-30T11:06:24;7.70;99.90
19734;DHT22;10018;51.230;7.860;2024-01-30T11:09:04;7.70;99.90
19734;DHT22;10018;51.230;7.860;2024-01-30T11:11:51;7.80;99.90
19734;DHT22;10018;51.230;7.860;2024-01-30T11:14:22;8.00;99.90
19734;DHT22;10018;51.230;7.860;2024-01-30T11:16:49;8.00;99.90
19734;DHT22;10018;51.230;7.860;2024-01-30T11:19:14;8.10;99.90
19734;DHT22;10018;51.230;7.860;2024-01-30T11:21:41;8.10;99.90
19734;DHT22;10018;51.230;7.860;2024-01-30T11:24:08;8.30;99.90
19734;DHT22;10018;51.230;7.860;2024-01-30T11:26:33;8.30;99.90
19734;DHT22;10018;51.230;7.860;2024-01-30T11:29:03;8.40;99.90
19734;DHT22;10018;51.230;7.860;2024-01-30T11:31:29;8.50;99.90
19734;DHT22;10018;51.230;7.860;2024-01-30T11:33:56;8.60;99.90
19734;DHT22;10018;51.230;7.860;2024-01-30T11:36:25;8.60;99.90
19734;DHT22;10018;51.230;7.860;2024-01-30T11:38:52;8.70;99.90
19734;DHT22;10018;51.230;7.860;2024-01-30T11:41:20;8.80;99.90
19734;DHT22;10018;51.230;7.860;2024-01-30T11:43:54;8.80;99.90
19734;DHT22;10018;51.230;7.860;2024-01-30T11:46:20;8.90;99.90
19734;DHT22;10018;51.230;7.860;2024-01-30T11:48:48;8.90;99.90
19734;DHT22;10018;51.230;7.860;2024-01-30T11:51:16;9.00;99.90
19734;DHT22;10018;51.230;7.860;2024-01-30T11:53:44;9.10;99.90
19734;DHT22;10018;51.230;7.860;2024-01-30T11:56:12;9.20;99.90
19734;DHT22;10018;51.230;7.860;2024-01-30T11:58:42;9.30;99.90
19734;DHT22;10018;51.230;7.860;2024-01-30T12:01:08;9.40;99.90
19734;DHT22;10018;51.230;7.860;2024-01-30T12:03:34;9.50;99.90
19734;DHT22;10018;51.230;7.860;2024-01-30T12:05:59;9.50;99.90
19734;DHT22;10018;51.230;7.860;2024-01-30T12:08:25;9.70;99.90
19734;DHT22;10018;51.230;7.860;2024-01-30T12:10:57;9.80;99.90
19734;DHT22;10018;51.230;7.860;2024-01-30T12:13:32;9.90;99.90
19734;DHT22;10018;51.230;7.860;2024-01-30T12:15:58;10.00;99.90
19734;DHT22;10018;51.230;7.860;2024-01-30T12:18:23;10.10;99.90
19734;DHT22;10018;51.230;7.860;2024-01-30T12:20:59;10.10;99.90
19734;DHT22;10018;51.230;7.860;2024-01-30T12:23:26;10.10;99.90
19734;DHT22;10018;51.230;7.860;2024-01-30T12:25:52;10.10;99.90
19734;DHT22;10018;51.230;7.860;2024-01-30T12:28:18;10.20;99.90
19734;DHT22;10018;51.230;7.860;2024-01-30T12:30:44;10.20;99.90
19734;DHT22;10018;51.230;7.860;2024-01-30T12:33:10;10.20;99.90
19734;DHT22;10018;51.230;7.860;2024-01-30T12:35:46;10.30;99.90
19734;DHT22;10018;51.230;7.860;2024-01-30T12:38:12;10.30;99.90
19734;DHT22;10018;51.230;7.860;2024-01-30T12:40:37;10.50;99.90
19734;DHT22;10018;51.230;7.860;2024-01-30T12:43:03;10.50;99.90
19734;DHT22;10018;51.230;7.860;2024-01-30T12:45:32;10.50;99.90
19734;DHT22;10018;51.230;7.860;2024-01-30T12:47:57;10.60;99.90
19734;DHT22;10018;51.230;7.860;2024-01-30T12:50:23;10.60;99.90
19734;DHT22;10018;51.230;7.860;2024-01-30T12:52:49;10.60;99.90
19734;DHT22;10018;51.230;7.860;2024-01-30T12:55:15;10.80;99.90
19734;DHT22;10018;51.230;7.860;2024-01-30T12:57:40;10.90;99.90
19734;DHT22;10018;51.230;7.860;2024-01-30T13:00:07;11.00;99.90
19734;DHT22;10018;51.230;7.860;2024-01-30T13:02:36;11.10;99.90
19734;DHT22;10018;51.230;7.860;2024-01-30T13:05:03;11.20;99.90
19734;DHT22;10018;51.230;7.860;2024-01-30T13:07:29;11.20;99.90
19734;DHT22;10018;51.230;7.860;2024-01-30T13:09:54;11.20;99.90
19734;DHT22;10018;51.230;7.860;2024-01-30T13:12:20;11.30;99.90
19734;DHT22;10018;51.230;7.860;2024-01-30T13:14:46;11.40;99.90
19734;DHT22;10018;51.230;7.860;2024-01-30T13:17:12;11.40;99.90
19734;DHT22;10018;51.230;7.860;2024-01-30T13:19:38;11.50;99.90
19734;DHT22;10018;51.230;7.860;2024-01-30T13:22:06;11.50;99.90
19734;DHT22;10018;51.230;7.860;2024-01-30T13:24:34;11.50;99.90
19734;DHT22;10018;51.230;7.860;2024-01-30T13:26:59;11.60;99.90
19734;DHT22;10018;51.230;7.860;2024-01-30T13:29:25;11.60;99.90
19734;DHT22;10018;51.230;7.860;2024-01-30T13:31:50;11.70;99.90
19734;DHT22;10018;51.230;7.860;2024-01-30T13:34:16;11.60;99.90
19734;DHT22;10018;51.230;7.860;2024-01-30T13:36:42;11.60;99.90
19734;DHT22;10018;51.230;7.860;2024-01-30T13:39:08;11.70;99.90
19734;DHT22;10018;51.230;7.860;2024-01-30T13:41:38;11.80;99.90
19734;DHT22;10018;51.230;7.860;2024-01-30T13:44:04;12.00;99.90
19734;DHT22;10018;51.230;7.860;2024-01-30T13:46:30;12.30;99.90
19734;DHT22;10018;51.230;7.860;2024-01-30T13:48:56;12.40;99.90
19734;DHT22;10018;51.230;7.860;2024-01-30T13:51:21;12.50;99.90
19734;DHT22;10018;51.230;7.860;2024-01-30T13:53:47;12.60;99.90
19734;DHT22;10018;51.230;7.860;2024-01-30T13:56:13;12.60;99.90
19734;DHT22;10018;51.230;7.860;2024-01-30T13:58:38;12.50;99.90
19734;DHT22;10018;51.230;7.860;2024-01-30T14:01:04;12.40;99.90
19734;DHT22;10018;51.230;7.860;2024-01-30T14:03:30;12.40;99.90
19734;DHT22;10018;51.230;7.860;2024-01-30T14:05:56;12.30;99.90
19734;DHT22;10018;51.230;7.860;2024-01-30T14:08:21;12.20;99.90
19734;DHT22;10018;51.230;7.860;2024-01-30T14:10:49;12.10;99.90
19734;DHT22;10018;51.230;7.860;2024-01-30T14:13:15;12.20;99.90
19734;DHT22;10018;51.230;7.860;2024-01-30T14:15:43;12.20;99.90
19734;DHT22;10018;51.230;7.860;2024-01-30T14:18:08;12.20;99.90
19734;DHT22;10018;51.230;7.860;2024-01-30T14:20:34;12.10;99.90
19734;DHT22;10018;51.230;7.860;2024-01-30T14:23:00;12.10;99.90
19734;DHT22;10018;51.230;7.860;2024-01-30T14:25:25;12.10;99.90
19734;DHT22;10018;51.230;7.860;2024-01-30T14:27:51;12.00;99.90
19734;DHT22;10018;51.230;7.860;2024-01-30T14:30:17;12.00;99.90
19734;DHT22;10018;51.230;7.860;2024-01-30T14:32:43;11.90;99.90
19734;DHT22;10018;51.230;7.860;2024-01-30T14:35:10;11.80;99.90
19734;DHT22;10018;51.230;7.860;2024-01-30T14:37:37;11.80;99.90
19734;DHT22;10018;51.230;7.860;2024-01-30T14:40:03;11.80;99.90
19734;DHT22;10018;51.230;7.860;2024-01-30T14:42:29;11.70;99.90
19734;DHT22;10018;51.230;7.860;2024-01-30T14:44:57;11.80;99.90
19734;DHT22;10018;51.230;7.860;2024-01-30T14:47:24;11.70;99.90
19734;DHT22;10018;51.230;7.860;2024-01-30T14:49:49;11.70;99.90
19734;DHT22;10018;51.230;7.860;2024-01-30T14:52:15;11.60;99.90
19734;DHT22;10018;51.230;7.860;2024-01-30T14:54:40;11.60;99.90
19734;DHT22;10018;51.230;7.860;2024-01-30T14:57:08;11.60;99.90
19734;DHT22;10018;51.230;7.860;2024-01-30T14:59:34;11.60;99.90
19734;DHT22;10018;51.230;7.860;2024-01-30T15:02:00;11.50;99.90
19734;DHT22;10018;51.230;7.860;2024-01-30T15:04:28;11.60;99.90
19734;DHT22;10018;51.230;7.860;2024-01-30T15:06:54;11.50;99.90
19734;DHT22;10018;51.230;7.860;2024-01-30T15:09:19;11.50;99.90
19734;DHT22;10018;51.230;7.860;2024-01-30T15:11:48;11.50;99.90
19734;DHT22;10018;51.230;7.860;2024-01-30T15:14:14;11.50;99.90
19734;DHT22;10018;51.230;7.860;2024-01-30T15:16:40;11.40;99.90
19734;DHT22;10018;51.230;7.860;2024-01-30T15:19:06;11.40;99.90
19734;DHT22;10018;51.230;7.860;2024-01-30T15:21:32;11.30;99.90
19734;DHT22;10018;51.230;7.860;2024-01-30T15:24:02;11.30;99.90
19734;DHT22;10018;51.230;7.860;2024-01-30T15:26:30;11.30;99.90
19734;DHT22;10018;51.230;7.860;2024-01-30T15:28:56;11.20;99.90
19734;DHT22;10018;51.230;7.860;2024-01-30T15:31:22;11.20;99.90
19734;DHT22;10018;51.230;7.860;2024-01-30T15:33:47;11.20;99.90
19734;DHT22;10018;51.230;7.860;2024-01-30T15:36:13;11.20;99.90
19734;DHT22;10018;51.230;7.860;2024-01-30T15:38:39;11.20;99.90